createdAt,value
2019-05-07T00:01:42.248Z,20
2019-05-07T00:06:39.118Z,23
2019-05-07T00:11:39.322Z,23
2019-05-07T00:16:39.109Z,28
2019-05-07T00:21:39.089Z,22
2019-05-07T00:26:39.091Z,28
2019-05-07T00:31:39.064Z,31
2019-05-07T00:36:39.053Z,29
2019-05-07T00:41:39.035Z,26
2019-05-07T00:46:42.537Z,23
2019-05-07T00:50:22.490Z,27
2019-05-07T00:55:22.552Z,27
2019-05-07T01:00:22.297Z,28
2019-05-07T01:05:22.855Z,28
2019-05-07T01:10:22.239Z,30
2019-05-07T01:15:38.874Z,24
2019-05-07T01:20:22.086Z,26
2019-05-07T01:25:22.035Z,29
2019-05-07T01:30:22.590Z,25
2019-05-07T01:35:22.387Z,28
2019-05-07T01:40:22.750Z,28
2019-05-07T01:45:22.002Z,29
2019-05-07T01:50:22.672Z,25
2019-05-07T01:55:22.530Z,27
2019-05-07T02:00:22.387Z,26
2019-05-07T02:05:22.805Z,26
2019-05-07T02:10:22.615Z,26
2019-05-07T02:15:22.563Z,27
2019-05-07T02:20:22.493Z,27
2019-05-07T02:25:22.098Z,24
2019-05-07T02:30:23.607Z,29
2019-05-07T02:35:23.306Z,27
2019-05-07T02:40:22.843Z,25
2019-05-07T02:45:23.699Z,28
2019-05-07T02:50:22.720Z,25
2019-05-07T02:55:23.142Z,30
2019-05-07T03:00:28.327Z,28
2019-05-07T03:05:22.891Z,27
2019-05-07T03:10:23.651Z,27
2019-05-07T03:15:23.841Z,28
2019-05-07T03:20:22.926Z,26
2019-05-07T03:25:23.067Z,29
2019-05-07T03:30:28.373Z,26
2019-05-07T03:35:27.166Z,28
2019-05-07T03:40:23.023Z,27
2019-05-07T03:45:22.988Z,29
2019-05-07T03:50:23.266Z,27
2019-05-07T03:55:23.299Z,30
2019-05-07T04:00:23.632Z,27
2019-05-07T04:05:23.116Z,30
2019-05-07T04:10:25.112Z,28
2019-05-07T04:15:27.469Z,25
2019-05-07T04:20:23.658Z,27
2019-05-07T04:25:23.684Z,27
2019-05-07T04:30:23.287Z,26
2019-05-07T04:57:19.097Z,25
2019-05-07T05:02:22.851Z,36
2019-05-07T05:07:22.297Z,36
2019-05-07T05:12:19.485Z,29
2019-05-07T05:17:19.229Z,31
2019-05-07T05:22:18.998Z,29
2019-05-07T05:27:18.456Z,27
2019-05-07T05:32:18.206Z,29
2019-05-07T05:37:18.199Z,25
2019-05-07T05:42:18.072Z,31
2019-05-07T05:47:18.194Z,26
2019-05-07T05:52:18.689Z,23
2019-05-07T05:57:18.466Z,25
2019-05-07T06:02:18.407Z,24
2019-05-07T06:07:22.648Z,21
2019-05-07T06:12:18.902Z,21
2019-05-07T06:17:19.246Z,17
2019-05-07T06:22:24.444Z,22
2019-05-07T06:27:18.474Z,19
2019-05-07T06:32:18.380Z,16
2019-05-07T06:37:18.104Z,18
2019-05-07T06:42:18.891Z,12
2019-05-07T06:47:22.158Z,13
2019-05-07T06:52:18.510Z,12
2019-05-07T06:57:19.292Z,14
2019-05-07T07:02:18.979Z,13
2019-05-07T07:07:44.094Z,14
2019-05-07T07:12:21.898Z,14
2019-05-07T07:17:24.456Z,17
2019-05-07T07:22:24.394Z,15
2019-05-07T07:27:24.858Z,14
2019-05-07T07:32:24.204Z,14
2019-05-07T07:37:24.981Z,15
2019-05-07T07:42:29.072Z,16
2019-05-07T07:47:28.516Z,14
2019-05-07T07:52:29.194Z,14
2019-05-07T07:57:28.000Z,14
2019-05-07T08:02:29.216Z,17
2019-05-07T08:07:29.062Z,22
2019-05-07T08:12:28.338Z,17
2019-05-07T08:17:28.703Z,18
2019-05-07T08:22:28.867Z,18
2019-05-07T08:27:28.421Z,22
2019-05-07T08:32:28.480Z,21
2019-05-07T08:37:32.029Z,22
2019-05-07T08:42:29.041Z,17
2019-05-07T08:47:29.042Z,21
2019-05-07T08:52:30.267Z,17
2019-05-07T08:57:28.988Z,19
2019-05-07T09:02:28.434Z,18
2019-05-07T09:07:48.629Z,17
2019-05-07T09:12:48.956Z,18
2019-05-07T09:17:48.518Z,16
2019-05-07T09:22:48.812Z,19
2019-05-07T09:27:48.600Z,21
2019-05-07T09:32:48.638Z,21
2019-05-07T09:37:48.253Z,24
2019-05-07T09:42:54.685Z,21
2019-05-07T09:47:47.996Z,20
2019-05-07T09:52:48.757Z,18
2019-05-07T09:57:48.664Z,19
2019-05-07T10:02:48.565Z,18
2019-05-07T10:07:48.545Z,18
2019-05-07T10:12:48.237Z,16
2019-05-07T10:17:46.542Z,15
2019-05-07T10:22:48.964Z,16
2019-05-07T10:27:48.056Z,18
2019-05-07T10:32:48.382Z,15
2019-05-07T10:37:48.517Z,16
2019-05-07T10:42:49.122Z,15
2019-05-07T10:47:48.037Z,16
2019-05-07T10:52:48.595Z,15
2019-05-07T10:57:48.437Z,16
2019-05-07T11:02:48.657Z,15
2019-05-07T11:08:02.065Z,16
2019-05-07T11:12:57.933Z,12
2019-05-07T11:17:58.292Z,13
2019-05-07T11:22:58.507Z,13
2019-05-07T11:27:58.626Z,13
2019-05-07T11:32:58.457Z,16
2019-05-07T11:37:58.352Z,27
2019-05-07T11:42:58.140Z,20
2019-05-07T11:47:57.243Z,18
2019-05-07T11:52:57.968Z,17
2019-05-07T11:57:58.039Z,19
2019-05-07T12:02:58.082Z,18
2019-05-07T12:07:57.260Z,21
2019-05-07T12:12:58.304Z,17
2019-05-07T12:17:58.343Z,13
2019-05-07T12:22:58.370Z,10
2019-05-07T12:27:57.263Z,10
2019-05-07T12:32:58.158Z,8
2019-05-07T12:37:57.263Z,14
2019-05-07T12:42:58.591Z,14
2019-05-07T12:47:59.152Z,13
2019-05-07T12:52:59.146Z,14
2019-05-07T12:57:58.053Z,16
2019-05-07T13:02:58.285Z,17
2019-05-07T13:07:57.227Z,18
2019-05-07T13:12:58.854Z,19
2019-05-07T13:17:58.202Z,18
2019-05-07T13:22:57.184Z,19
2019-05-07T13:27:58.297Z,21
2019-05-07T13:33:04.090Z,23
2019-05-07T13:38:02.814Z,23
2019-05-07T13:43:04.891Z,23
2019-05-07T13:48:04.926Z,20
2019-05-07T13:53:03.863Z,21
2019-05-07T13:58:02.732Z,25
2019-05-07T14:03:05.227Z,25
2019-05-07T14:08:04.383Z,26
2019-05-07T14:13:21.921Z,28
2019-05-07T14:18:04.305Z,28
2019-05-07T14:23:02.711Z,30
2019-05-07T14:28:06.433Z,29
2019-05-07T14:33:05.927Z,28
2019-05-07T14:38:03.994Z,27
2019-05-07T14:43:05.673Z,26
2019-05-07T14:48:05.004Z,26
2019-05-07T14:53:06.875Z,27
2019-05-07T14:58:06.026Z,27
2019-05-07T15:03:05.980Z,24
2019-05-07T15:08:18.405Z,25
2019-05-07T15:13:06.322Z,28
2019-05-07T15:18:03.965Z,31
2019-05-07T15:23:04.806Z,30
2019-05-07T15:28:05.963Z,36
2019-05-07T15:33:06.360Z,34
2019-05-07T15:38:04.568Z,33
2019-05-07T15:43:14.869Z,34
2019-05-07T15:48:08.324Z,39
2019-05-07T15:53:08.087Z,34
2019-05-07T16:20:38.846Z,39
2019-05-07T16:25:39.110Z,35
2019-05-07T16:36:56.642Z,36
2019-05-07T17:02:45.837Z,29
2019-05-07T17:07:44.778Z,28
2019-05-07T17:12:45.867Z,28
2019-05-07T17:17:44.909Z,29
2019-05-07T17:22:44.869Z,26
2019-05-07T18:11:52.135Z,15
2019-05-07T18:16:52.635Z,15
2019-05-07T18:21:52.430Z,11
2019-05-07T18:26:54.642Z,12
2019-05-07T18:31:51.297Z,10
2019-05-07T18:36:52.990Z,9
2019-05-07T18:41:56.427Z,12
2019-05-07T18:46:52.827Z,7
2019-05-07T18:57:39.036Z,12
2019-05-07T19:02:38.987Z,9
2019-05-07T19:07:41.654Z,6
2019-05-07T19:12:39.178Z,6
2019-05-07T19:17:38.925Z,6
2019-05-07T19:22:44.478Z,10
2019-05-07T19:27:40.121Z,6
2019-05-07T19:32:38.898Z,10
2019-05-07T19:37:39.016Z,11
2019-05-07T19:42:38.923Z,7
2019-05-07T19:47:39.008Z,7
2019-05-07T19:52:39.365Z,12
2019-05-07T19:57:42.611Z,4
2019-05-07T20:02:42.691Z,16
2019-05-07T20:07:42.271Z,6
2019-05-07T20:12:42.803Z,9
2019-05-07T20:17:44.006Z,14
2019-05-07T20:22:42.355Z,7
2019-05-07T20:27:43.921Z,12
2019-05-07T20:32:42.874Z,11
2019-05-07T20:37:44.064Z,14
2019-05-07T20:42:42.750Z,14
2019-05-07T20:47:44.279Z,12
2019-05-07T20:52:43.917Z,12
2019-05-07T20:57:55.263Z,7
2019-05-07T21:02:54.530Z,7
2019-05-07T21:07:48.596Z,6
2019-05-07T21:12:53.840Z,7
2019-05-07T21:17:49.107Z,7
2019-05-07T21:22:48.710Z,6
2019-05-07T21:27:49.361Z,8
2019-05-07T21:32:48.276Z,9
2019-05-07T21:37:48.033Z,7
2019-05-07T21:42:48.743Z,7
2019-05-07T21:47:47.745Z,7
2019-05-07T21:52:47.720Z,8
2019-05-07T21:57:47.760Z,7
2019-05-07T22:02:48.112Z,8
2019-05-07T22:07:47.726Z,10
2019-05-07T22:12:47.760Z,7
2019-05-07T22:17:52.038Z,11
2019-05-07T22:22:48.938Z,10
2019-05-07T22:27:48.360Z,8
2019-05-07T22:32:50.024Z,9
2019-05-07T22:37:54.407Z,9
2019-05-07T22:42:47.713Z,11
2019-05-07T22:47:49.721Z,11
2019-05-07T22:52:47.677Z,10
2019-05-07T22:57:48.241Z,9
2019-05-07T23:02:48.975Z,8
2019-05-07T23:07:54.792Z,9
2019-05-07T23:12:53.410Z,8
2019-05-07T23:17:53.384Z,11
2019-05-07T23:22:56.151Z,9
2019-05-07T23:27:58.625Z,11
2019-05-07T23:32:59.043Z,10
2019-05-07T23:37:59.207Z,11
2019-05-07T23:42:58.355Z,11
2019-05-07T23:47:58.067Z,11
2019-05-07T23:52:58.860Z,10
2019-05-07T23:57:58.751Z,8
